Time;durP1;ratioP1;P1;durP2;ratioP2;P2;SDS_P1;SDS_P2;PMS_P1;PMS_P2;Temp;Humidity;BMP_temperature;BMP_pressure;BME280_temperature;BME280_humidity;BME280_pressure;Samples;Min_cycle;Max_cycle;Signal;HPM_P1;HPM_P2
2022/07/14 00:02:22;;;;;;;13.20;2.50;;;;;;;19.52;71.80;101785.34;5022565;28;20033;-75
2022/07/14 00:04:48;;;;;;;14.82;2.90;;;;;;;19.46;71.88;101796.66;5060083;28;20068;-76
2022/07/14 00:07:13;;;;;;;15.77;2.85;;;;;;;19.44;72.18;101791.56;5023637;28;20048;-74
2022/07/14 00:09:39;;;;;;;7.63;2.70;;;;;;;19.39;71.95;101786.06;5061129;28;20032;-75
2022/07/14 00:12:05;;;;;;;12.40;3.20;;;;;;;19.36;71.85;101785.63;5039130;28;20114;-76
2022/07/14 00:14:30;;;;;;;9.30;2.80;;;;;;;19.28;72.38;101786.59;5037878;28;20124;-74
2022/07/14 00:16:55;;;;;;;10.02;2.03;;;;;;;19.20;72.28;101790.16;5062864;28;20021;-76
2022/07/14 00:19:21;;;;;;;8.93;2.30;;;;;;;19.13;72.68;101786.66;5044923;28;20413;-75
2022/07/14 00:21:47;;;;;;;6.13;1.80;;;;;;;19.13;73.07;101780.59;5029788;28;20028;-76
2022/07/14 00:24:13;;;;;;;25.95;4.95;;;;;;;19.20;72.74;101784.09;5026329;28;20037;-75
2022/07/14 00:26:42;;;;;;;12.60;2.28;;;;;;;19.13;73.01;101783.22;5064176;28;20039;-77
2022/07/14 00:29:08;;;;;;;11.32;3.22;;;;;;;19.09;72.81;101789.88;5039402;28;20148;-76
2022/07/14 00:31:34;;;;;;;10.57;2.95;;;;;;;19.00;73.18;101782.09;5066484;28;20024;-76
2022/07/14 00:34:00;;;;;;;8.48;2.45;;;;;;;18.99;73.31;101787.56;5044104;28;20051;-76
2022/07/14 00:36:28;;;;;;;10.27;2.10;;;;;;;18.96;73.30;101780.03;5044252;28;20086;-75
2022/07/14 00:38:55;;;;;;;9.48;2.33;;;;;;;18.92;73.42;101776.97;5044853;28;20123;-77
2022/07/14 00:41:21;;;;;;;8.90;2.35;;;;;;;18.93;73.58;101778.63;5030798;28;20028;-76
2022/07/14 00:43:46;;;;;;;15.60;2.35;;;;;;;18.92;73.50;101763.84;5047455;28;20074;-77
2022/07/14 00:46:12;;;;;;;9.05;2.47;;;;;;;18.94;73.41;101767.09;5033791;28;20016;-76
2022/07/14 00:48:37;;;;;;;8.18;1.70;;;;;;;18.96;73.52;101772.97;5052966;28;21677;-76
2022/07/14 00:51:03;;;;;;;10.65;2.35;;;;;;;18.97;73.43;101768.53;5066134;28;20111;-76
2022/07/14 00:53:29;;;;;;;16.05;3.25;;;;;;;18.91;73.75;101756.97;5059517;28;20060;-75
2022/07/14 00:55:54;;;;;;;11.55;2.83;;;;;;;18.92;73.51;101763.84;5047173;28;20071;-76
2022/07/14 00:58:20;;;;;;;9.18;2.08;;;;;;;18.90;73.68;101765.03;5049958;28;20040;-75
2022/07/14 01:00:45;;;;;;;13.10;2.95;;;;;;;18.85;73.58;101766.41;5049510;28;20408;-76
2022/07/14 01:03:11;;;;;;;14.05;2.00;;;;;;;18.78;74.01;101768.13;5048956;28;20123;-75
2022/07/14 01:05:37;;;;;;;14.65;2.60;;;;;;;18.74;74.45;101771.28;5052084;28;20098;-76
2022/07/14 01:08:03;;;;;;;14.60;2.25;;;;;;;18.75;74.15;101762.44;5049509;28;20475;-76
2022/07/14 01:10:29;;;;;;;12.93;3.83;;;;;;;18.71;74.41;101759.34;5050341;28;20028;-76
2022/07/14 01:12:59;;;;;;;14.27;3.33;;;;;;;18.68;74.27;101760.56;5033495;28;20081;-75
2022/07/14 01:15:24;;;;;;;10.80;2.45;;;;;;;18.65;74.39;101768.78;5054706;28;20643;-75
2022/07/14 01:17:50;;;;;;;8.70;2.10;;;;;;;18.66;74.52;101766.97;5046022;28;20032;-76
2022/07/14 01:20:19;;;;;;;11.57;2.67;;;;;;;18.65;74.75;101768.00;5035032;28;20032;-75
2022/07/14 01:22:49;;;;;;;6.40;2.17;;;;;;;18.65;74.72;101765.38;5046333;28;20028;-76
2022/07/14 01:25:17;;;;;;;11.68;3.30;;;;;;;18.58;74.84;101762.66;5046845;28;20038;-76
2022/07/14 01:27:43;;;;;;;10.95;2.97;;;;;;;18.56;75.02;101764.66;5049294;28;20062;-75
2022/07/14 01:30:09;;;;;;;19.45;3.05;;;;;;;18.48;75.23;101773.47;5047697;28;20665;-75
2022/07/14 01:32:36;;;;;;;10.93;3.35;;;;;;;18.43;75.40;101780.25;5046454;28;20052;-73
2022/07/14 01:35:04;;;;;;;8.95;2.70;;;;;;;18.36;75.66;101789.88;5030516;28;20036;-74
2022/07/14 01:37:30;;;;;;;14.27;2.83;;;;;;;18.40;75.83;101799.84;5046968;28;20028;-76
2022/07/14 01:39:55;;;;;;;8.00;2.35;;;;;;;18.40;75.90;101797.22;5031724;28;20036;-75
2022/07/14 01:42:21;;;;;;;10.02;2.72;;;;;;;18.40;75.92;101802.47;5044548;28;20690;-76
2022/07/14 01:44:47;;;;;;;6.50;2.42;;;;;;;18.31;76.53;101792.22;5060693;28;20033;-76
2022/07/14 01:47:13;;;;;;;10.57;2.92;;;;;;;18.26;76.36;101798.03;5049990;28;20031;-75
2022/07/14 01:49:39;;;;;;;12.93;2.50;;;;;;;18.20;76.50;101780.41;5050527;28;20394;-76
2022/07/14 01:52:07;;;;;;;19.70;4.47;;;;;;;18.15;76.70;101777.50;5045552;28;20128;-76
2022/07/14 01:54:35;;;;;;;11.88;2.60;;;;;;;18.16;76.84;101772.06;5031024;28;20029;-76
2022/07/14 01:57:00;;;;;;;8.88;2.47;;;;;;;18.12;77.00;101765.56;5049966;28;20138;-75
2022/07/14 01:59:26;;;;;;;8.85;2.25;;;;;;;18.12;77.09;101759.47;5028769;28;20033;-76
2022/07/14 02:01:54;;;;;;;8.27;2.63;;;;;;;18.11;76.89;101750.00;5031298;28;20040;-76
2022/07/14 02:04:20;;;;;;;9.93;2.65;;;;;;;18.03;77.00;101751.72;5046194;28;20527;-75
2022/07/14 02:06:51;;;;;;;10.48;2.30;;;;;;;17.96;77.11;101750.81;5045712;28;20024;-75
2022/07/14 02:12:34;;;;;;;16.08;3.85;;;;;;;17.91;77.64;101740.03;5048386;28;20085;-76
2022/07/14 02:15:00;;;;;;;17.10;2.72;;;;;;;17.82;78.29;101747.16;5050282;28;20087;-76
2022/07/14 02:17:26;;;;;;;19.13;4.45;;;;;;;17.79;78.06;101741.47;5026177;28;20032;-76
2022/07/14 02:19:51;;;;;;;8.73;2.25;;;;;;;17.80;78.42;101743.09;5046774;28;20643;-75
2022/07/14 02:22:17;;;;;;;20.00;3.20;;;;;;;17.87;78.02;101744.03;5064283;28;20029;-74
2022/07/14 02:24:42;;;;;;;7.82;2.42;;;;;;;17.89;78.16;101742.88;5032518;28;20093;-76
2022/07/14 02:27:08;;;;;;;11.40;2.67;;;;;;;17.85;78.19;101752.06;5043789;28;20090;-74
2022/07/14 02:29:33;;;;;;;12.20;3.85;;;;;;;17.88;78.12;101743.03;5053167;28;20028;-75
2022/07/14 02:31:59;;;;;;;13.68;2.33;;;;;;;17.86;78.21;101752.91;5044193;28;20033;-76
2022/07/14 02:34:24;;;;;;;11.88;2.53;;;;;;;17.85;78.20;101749.44;5047893;28;20130;-75
2022/07/14 02:36:51;;;;;;;12.10;2.72;;;;;;;17.80;78.38;101756.19;5043648;28;20784;-74
2022/07/14 02:39:17;;;;;;;11.68;3.00;;;;;;;17.80;78.20;101762.28;5045314;28;20036;-75
2022/07/14 02:41:43;;;;;;;11.73;2.78;;;;;;;17.80;78.27;101767.53;5045565;28;20087;-76
2022/07/14 02:44:10;;;;;;;12.77;2.70;;;;;;;17.75;78.50;101767.25;5043553;28;20579;-75
2022/07/14 02:46:36;;;;;;;11.52;2.85;;;;;;;17.69;78.73;101768.78;5045927;28;20043;-76
2022/07/14 02:49:03;;;;;;;10.45;2.65;;;;;;;17.70;78.38;101767.75;5062671;28;20041;-73
2022/07/14 02:51:29;;;;;;;9.30;2.38;;;;;;;17.62;79.07;101778.34;5040896;28;20039;-75
2022/07/14 02:53:55;;;;;;;10.82;3.35;;;;;;;17.64;79.09;101775.56;5046100;28;20021;-75
2022/07/14 02:56:21;;;;;;;12.07;2.90;;;;;;;17.64;79.09;101772.94;5032864;28;20028;-75
2022/07/14 02:58:48;;;;;;;11.88;3.22;;;;;;;17.61;79.29;101763.63;5048579;28;20082;-76
2022/07/14 03:01:14;;;;;;;14.27;3.03;;;;;;;17.61;79.19;101761.00;5025849;28;20024;-75
2022/07/14 03:03:40;;;;;;;10.82;3.03;;;;;;;17.64;79.04;101762.44;5059581;28;20036;-76
2022/07/14 03:06:08;;;;;;;11.20;2.83;;;;;;;17.66;78.88;101768.31;5060611;28;20028;-75
2022/07/14 03:08:33;;;;;;;15.70;3.05;;;;;;;17.55;79.25;101761.69;5029345;28;20032;-76
2022/07/14 03:10:59;;;;;;;10.55;3.33;;;;;;;17.50;79.36;101757.00;5044480;28;20035;-75
2022/07/14 03:13:25;;;;;;;13.70;2.88;;;;;;;17.47;79.52;101735.56;5048102;28;20393;-75
2022/07/14 03:15:50;;;;;;;15.95;3.42;;;;;;;17.38;80.18;101728.75;5068482;28;20409;-76
2022/07/14 03:18:16;;;;;;;23.35;3.78;;;;;;;17.20;80.68;101739.59;5067270;28;20036;-76
2022/07/14 03:20:42;;;;;;;14.32;3.30;;;;;;;17.17;81.09;101738.13;5029266;28;20685;-75
2022/07/14 03:23:07;;;;;;;11.80;3.30;;;;;;;17.22;81.12;101735.78;5040088;28;20078;-75
2022/07/14 03:25:33;;;;;;;16.95;3.80;;;;;;;17.24;80.82;101748.72;5043733;28;20090;-77
2022/07/14 03:27:59;;;;;;;12.10;2.95;;;;;;;17.27;80.89;101753.59;5045599;28;20032;-76
2022/07/14 03:30:30;;;;;;;9.38;3.15;;;;;;;17.29;80.64;101756.84;5041441;28;20079;-76
2022/07/14 03:32:56;;;;;;;17.92;3.65;;;;;;;17.18;80.93;101745.00;5046250;28;20028;-76
2022/07/14 03:35:22;;;;;;;13.57;3.10;;;;;;;17.16;80.72;101741.75;5049650;28;20032;-75
2022/07/14 03:37:48;;;;;;;18.67;3.92;;;;;;;17.11;81.10;101728.34;5045224;28;20028;-73
2022/07/14 03:40:15;;;;;;;17.42;4.20;;;;;;;17.20;81.03;101729.09;5042140;28;20098;-76
2022/07/14 03:42:40;;;;;;;19.42;3.33;;;;;;;17.11;81.00;101729.16;5045816;28;20016;-76
2022/07/14 03:45:06;;;;;;;12.93;3.65;;;;;;;17.02;81.32;101730.22;5064907;28;20032;-76
2022/07/14 03:47:32;;;;;;;13.38;3.85;;;;;;;16.89;82.37;101728.19;5047262;28;20490;-75
2022/07/14 03:49:59;;;;;;;13.18;3.60;;;;;;;16.98;81.69;101728.94;5043920;28;20036;-76
2022/07/14 03:52:24;;;;;;;13.48;4.00;;;;;;;16.81;82.52;101743.13;5045360;28;20020;-75
2022/07/14 03:54:50;;;;;;;15.32;3.45;;;;;;;16.79;82.44;101740.66;5038956;28;20033;-76
2022/07/14 03:57:19;;;;;;;15.10;3.60;;;;;;;16.83;82.76;101741.16;5028758;28;20029;-75
2022/07/14 03:59:48;;;;;;;12.27;2.90;;;;;;;16.86;82.53;101725.94;5042594;28;20040;-75
2022/07/14 04:02:15;;;;;;;17.13;3.40;;;;;;;16.81;82.66;101735.25;5045809;28;20098;-76
2022/07/14 04:04:41;;;;;;;19.17;3.75;;;;;;;16.80;83.03;101731.84;5028904;28;20509;-76
2022/07/14 04:07:07;;;;;;;16.50;3.42;;;;;;;16.81;82.95;101727.41;5046107;28;20059;-76
2022/07/14 04:09:34;;;;;;;15.02;3.40;;;;;;;16.82;83.11;101732.50;5027452;28;20040;-77
2022/07/14 04:12:00;;;;;;;9.30;2.70;;;;;;;16.84;82.92;101737.53;5047554;28;20119;-75
2022/07/14 04:14:26;;;;;;;10.70;2.47;;;;;;;16.88;83.06;101738.84;5043229;28;20036;-76
2022/07/14 04:16:52;;;;;;;15.05;4.03;;;;;;;16.92;82.79;101740.13;5064388;28;20045;-75
2022/07/14 04:19:19;;;;;;;17.80;3.45;;;;;;;16.93;82.42;101739.97;5048085;28;20029;-76
2022/07/14 04:21:45;;;;;;;10.60;3.20;;;;;;;16.96;82.50;101751.88;5050062;28;20028;-75
2022/07/14 04:24:11;;;;;;;18.10;4.03;;;;;;;17.01;81.95;101749.56;5046813;28;20047;-75
2022/07/14 04:26:40;;;;;;;11.73;2.90;;;;;;;16.99;81.86;101751.53;5048029;28;20393;-76
2022/07/14 04:29:06;;;;;;;11.70;3.17;;;;;;;16.94;82.03;101753.88;5050302;28;20036;-76
2022/07/14 04:31:33;;;;;;;14.70;4.22;;;;;;;16.92;81.96;101748.78;5062043;28;20530;-76
2022/07/14 04:33:58;;;;;;;11.02;2.75;;;;;;;16.94;82.27;101748.63;5047127;28;20033;-76
2022/07/14 04:36:24;;;;;;;16.75;4.60;;;;;;;16.92;82.11;101755.84;5051138;28;20031;-75
2022/07/14 04:38:50;;;;;;;14.20;3.50;;;;;;;16.85;82.28;101755.72;5053284;28;20032;-75
2022/07/14 04:41:17;;;;;;;17.17;3.95;;;;;;;16.87;82.05;101758.16;5048687;28;20150;-77
2022/07/14 04:43:42;;;;;;;11.50;3.28;;;;;;;16.81;82.64;101754.41;5065910;28;20032;-76
2022/07/14 04:46:09;;;;;;;17.65;3.67;;;;;;;16.81;82.80;101759.66;5045636;28;20043;-75
2022/07/14 04:54:13;;;;;;;16.45;3.67;;;;;;;16.70;82.67;101750.38;5059548;28;20081;-76
2022/07/14 04:56:48;;;;;;;24.10;3.65;;;;;;;16.69;82.90;101746.13;5060008;28;20033;-76
2022/07/14 04:59:15;;;;;;;19.35;3.38;;;;;;;16.72;82.95;101750.22;5061541;28;20028;-76
2022/07/14 05:01:42;;;;;;;14.38;3.63;;;;;;;16.72;83.21;101753.63;5049243;28;20028;-75
2022/07/14 05:04:08;;;;;;;19.38;3.88;;;;;;;16.85;82.90;101750.47;5046320;28;20029;-75
2022/07/14 05:06:35;;;;;;;16.77;3.90;;;;;;;16.91;82.58;101754.19;5030954;28;20020;-76
2022/07/14 05:09:02;;;;;;;21.70;3.58;;;;;;;17.03;82.41;101747.56;5029084;28;20112;-75
2022/07/14 05:11:28;;;;;;;11.43;4.72;;;;;;;17.11;81.93;101751.94;5029234;28;20499;-76
2022/07/14 05:13:54;;;;;;;22.73;3.88;;;;;;;17.14;81.51;101748.97;5046261;28;20032;-75
2022/07/14 05:16:20;;;;;;;18.13;4.20;;;;;;;16.99;81.48;101743.69;5065492;28;20041;-75
2022/07/14 05:18:46;;;;;;;20.17;4.25;;;;;;;16.92;81.94;101748.00;5062876;28;20107;-75
2022/07/14 05:21:13;;;;;;;26.48;6.05;;;;;;;17.02;81.02;101751.16;5028764;28;20033;-75
2022/07/14 05:23:39;;;;;;;14.98;4.15;;;;;;;17.03;81.02;101746.78;5049471;28;20032;-75
2022/07/14 05:26:12;;;;;;;24.65;4.68;;;;;;;17.02;81.08;101747.75;5048335;28;20028;-75
2022/07/14 05:28:39;;;;;;;13.48;3.22;;;;;;;17.07;80.63;101745.41;5035876;28;20036;-75
2022/07/14 05:31:05;;;;;;;8.50;3.28;;;;;;;17.16;80.35;101749.59;5027501;28;20130;-76
2022/07/14 05:33:37;;;;;;;19.67;4.30;;;;;;;17.08;80.29;101747.88;5047354;28;20028;-75
2022/07/14 05:36:05;;;;;;;16.38;3.80;;;;;;;17.17;80.31;101739.94;5031786;28;20150;-74
2022/07/14 05:38:32;;;;;;;17.30;4.20;;;;;;;17.21;80.10;101742.00;5043690;28;20029;-74
2022/07/14 05:41:01;;;;;;;15.23;3.80;;;;;;;17.16;80.09;101752.22;5046386;28;20124;-75
2022/07/14 05:43:31;;;;;;;19.88;5.07;;;;;;;17.10;79.73;101751.13;5035580;28;20029;-75
2022/07/14 05:46:04;;;;;;;22.05;4.10;;;;;;;17.08;80.00;101747.03;5029485;28;20033;-74
2022/07/14 05:48:31;;;;;;;16.63;3.60;;;;;;;17.16;80.09;101752.22;5029942;28;20150;-76
2022/07/14 05:51:08;;;;;;;19.65;4.35;;;;;;;17.20;79.88;101745.63;5064366;28;20032;-76
2022/07/14 05:53:35;;;;;;;14.57;3.42;;;;;;;17.25;79.79;101742.47;5031016;28;20055;-74
2022/07/14 05:56:03;;;;;;;23.20;4.93;;;;;;;17.44;79.20;101756.88;5044733;28;20498;-75
2022/07/14 05:58:29;;;;;;;22.85;4.60;;;;;;;17.61;78.63;101760.16;5045189;28;20792;-76
2022/07/14 06:00:55;;;;;;;19.70;4.22;;;;;;;17.67;77.80;101765.53;5032204;28;20036;-75
2022/07/14 06:03:20;;;;;;;20.48;5.05;;;;;;;17.67;77.98;101768.13;5046516;28;20021;-76
2022/07/14 06:05:47;;;;;;;19.63;5.50;;;;;;;17.84;77.45;101773.22;5047443;28;20024;-76
2022/07/14 06:08:13;;;;;;;24.92;3.88;;;;;;;17.87;77.13;101770.25;5031872;28;20020;-76
2022/07/14 06:10:38;;;;;;;18.33;3.38;;;;;;;18.00;76.79;101762.56;5049108;28;20378;-76
2022/07/14 06:13:05;;;;;;;18.33;4.05;;;;;;;18.57;74.83;101762.84;5043891;28;20485;-76
2022/07/14 06:15:30;;;;;;;15.93;3.65;;;;;;;18.51;73.97;101756.50;5047649;28;20029;-77
2022/07/14 06:17:56;;;;;;;15.38;4.90;;;;;;;18.54;73.10;101753.53;5045204;28;20031;-75
2022/07/14 06:20:23;;;;;;;13.52;3.75;;;;;;;18.41;73.84;101756.00;5044954;28;20032;-75
2022/07/14 06:22:52;;;;;;;22.95;4.20;;;;;;;18.41;74.30;101756.81;5058751;28;20385;-76
2022/07/14 06:25:17;;;;;;;16.05;4.88;;;;;;;18.52;73.72;101763.41;5031059;28;20082;-75
2022/07/14 06:27:44;;;;;;;28.23;4.53;;;;;;;18.83;72.07;101760.50;5061285;28;20028;-74
2022/07/14 06:30:11;;;;;;;25.83;4.43;;;;;;;18.84;71.71;101767.41;5045014;28;20538;-76
2022/07/14 06:32:40;;;;;;;23.67;5.05;;;;;;;18.88;71.77;101765.22;5027578;28;20036;-75
2022/07/14 06:35:10;;;;;;;26.65;5.82;;;;;;;19.00;71.24;101768.16;5044117;28;20413;-75
2022/07/14 06:37:36;;;;;;;22.42;5.75;;;;;;;19.24;70.10;101767.75;5046240;28;20052;-77
2022/07/14 06:40:05;;;;;;;21.73;5.18;;;;;;;19.33;69.49;101771.06;5041940;28;20068;-75
2022/07/14 06:42:31;;;;;;;29.05;5.18;;;;;;;19.07;70.96;101766.41;5028647;28;20024;-75
2022/07/14 06:45:15;;;;;;;34.78;6.00;;;;;;;19.10;70.30;101760.78;5047235;28;20106;-74
2022/07/14 06:47:40;;;;;;;24.05;5.45;;;;;;;18.97;71.22;101765.91;5034015;28;20750;-75
2022/07/14 06:50:06;;;;;;;40.80;16.30;;;;;;;19.09;71.16;101769.66;5031713;28;20040;-76
2022/07/14 06:52:33;;;;;;;23.13;6.55;;;;;;;19.14;70.45;101766.47;5043328;28;20033;-77
2022/07/14 06:54:59;;;;;;;21.33;5.07;;;;;;;19.28;70.32;101757.66;5046066;28;20552;-76
2022/07/14 06:57:25;;;;;;;15.43;4.10;;;;;;;19.36;70.22;101749.63;5065025;28;20472;-76
2022/07/14 06:59:51;;;;;;;21.48;4.65;;;;;;;19.70;69.12;101749.84;5068864;28;20031;-77
2022/07/14 07:02:16;;;;;;;27.98;5.07;;;;;;;20.53;66.30;101742.75;5049551;28;20040;-75
2022/07/14 07:04:42;;;;;;;26.45;6.13;;;;;;;21.34;63.74;101727.78;5051237;28;20107;-74
2022/07/14 07:07:07;;;;;;;19.55;5.05;;;;;;;21.97;60.37;101727.25;5045160;28;20036;-76
2022/07/14 07:09:33;;;;;;;20.48;5.80;;;;;;;22.01;59.83;101727.66;5049072;28;20023;-75
2022/07/14 07:11:58;;;;;;;21.30;6.35;;;;;;;21.68;60.51;101731.19;5073649;28;20564;-76
2022/07/14 07:14:24;;;;;;;19.73;4.45;;;;;;;21.80;59.77;101729.56;5046810;28;20066;-74
2022/07/14 07:16:50;;;;;;;18.67;4.18;;;;;;;21.85;59.91;101731.56;5063649;28;20033;-75
2022/07/14 07:19:16;;;;;;;19.23;5.20;;;;;;;21.82;59.69;101732.78;5066325;28;20038;-77
2022/07/14 07:21:42;;;;;;;14.77;3.53;;;;;;;21.20;61.47;101732.28;5067776;28;20115;-76
2022/07/14 07:24:09;;;;;;;17.25;4.25;;;;;;;21.19;61.35;101731.47;5028779;28;20033;-75
2022/07/14 07:26:37;;;;;;;21.88;3.67;;;;;;;21.22;61.37;101732.88;5064843;28;20115;-76
2022/07/14 07:29:04;;;;;;;18.05;3.22;;;;;;;21.15;61.30;101735.53;5046392;28;20507;-76
2022/07/14 07:31:31;;;;;;;17.42;3.75;;;;;;;21.28;61.38;101742.59;5056550;28;20036;-76
2022/07/14 07:33:56;;;;;;;12.57;2.90;;;;;;;21.37;61.55;101737.94;5049555;28;20051;-77
2022/07/14 07:36:22;;;;;;;21.30;3.90;;;;;;;21.64;60.33;101738.72;5047730;28;20080;-76
2022/07/14 07:38:47;;;;;;;15.65;4.30;;;;;;;21.92;59.76;101738.44;5062242;28;20036;-76
2022/07/14 07:41:13;;;;;;;16.40;4.30;;;;;;;22.42;57.62;101737.03;5023611;28;20032;-76
2022/07/14 07:43:38;;;;;;;14.63;2.83;;;;;;;23.14;55.51;101729.59;5032131;28;20025;-76
2022/07/14 07:46:05;;;;;;;13.80;2.75;;;;;;;23.94;53.01;101727.97;5065219;28;20556;-75
2022/07/14 07:48:32;;;;;;;11.10;2.92;;;;;;;24.23;51.82;101727.19;5045276;28;20020;-75
2022/07/14 07:50:58;;;;;;;14.40;3.15;;;;;;;24.48;50.92;101723.56;5065493;28;20028;-75
2022/07/14 07:53:23;;;;;;;20.88;3.70;;;;;;;24.83;49.39;101723.66;5044824;28;20031;-74
2022/07/14 07:55:48;;;;;;;12.45;3.13;;;;;;;25.21;49.09;101725.06;5065835;28;20040;-73
2022/07/14 07:58:14;;;;;;;16.23;2.40;;;;;;;25.09;48.13;101726.94;5070717;28;20093;-76
2022/07/14 08:00:40;;;;;;;12.13;2.38;;;;;;;25.24;47.54;101729.13;5046169;28;20071;-76
2022/07/14 08:03:05;;;;;;;12.57;2.10;;;;;;;25.31;47.03;101721.06;5063409;28;20052;-75
2022/07/14 08:05:32;;;;;;;20.15;2.42;;;;;;;25.28;47.00;101722.34;5064368;28;20040;-77
2022/07/14 08:07:58;;;;;;;13.57;2.72;;;;;;;24.48;47.67;101715.63;5040946;28;20038;-75
2022/07/14 08:10:24;;;;;;;13.38;2.33;;;;;;;23.92;48.58;101724.75;5044882;28;20048;-75
2022/07/14 08:12:50;;;;;;;12.52;2.38;;;;;;;23.96;47.70;101720.59;5043725;28;20048;-76
2022/07/14 08:15:16;;;;;;;13.32;2.20;;;;;;;24.47;45.27;101716.66;5064735;28;20040;-77
2022/07/14 08:17:42;;;;;;;13.68;2.30;;;;;;;25.08;46.05;101708.59;5045554;28;20037;-78
2022/07/14 08:20:09;;;;;;;8.20;2.10;;;;;;;25.01;46.08;101708.69;5040531;28;20055;-77
2022/07/14 08:22:36;;;;;;;12.93;2.55;;;;;;;24.60;47.21;101705.91;5062173;28;20021;-79
2022/07/14 08:25:02;;;;;;;14.35;2.65;;;;;;;24.23;48.86;101708.63;5060801;28;20029;-77
2022/07/14 08:27:28;;;;;;;15.52;2.47;;;;;;;24.27;48.12;101695.75;5061899;28;20073;-76
2022/07/14 08:29:54;;;;;;;13.50;2.60;;;;;;;24.08;48.81;101687.03;5046751;28;20029;-75
2022/07/14 08:32:38;;;;;;;13.65;3.00;;;;;;;24.31;47.11;101688.97;5045162;28;20033;-76
2022/07/14 08:35:05;;;;;;;7.82;1.65;;;;;;;24.08;47.30;101677.25;5027838;28;20058;-77
2022/07/14 08:37:31;;;;;;;15.60;3.20;;;;;;;24.17;47.32;101676.94;5043186;28;20041;-77
2022/07/14 08:39:56;;;;;;;8.77;2.25;;;;;;;24.13;47.16;101675.75;5031270;28;20031;-76
2022/07/14 08:42:22;;;;;;;14.18;1.98;;;;;;;24.20;46.64;101677.28;5026866;28;20666;-76
2022/07/14 08:44:48;;;;;;;9.20;1.80;;;;;;;24.21;45.91;101681.56;5060721;28;20047;-77
2022/07/14 08:47:14;;;;;;;11.30;2.45;;;;;;;24.46;45.65;101672.63;5043809;28;20101;-76
2022/07/14 08:49:40;;;;;;;9.52;1.73;;;;;;;24.83;44.34;101675.13;5043092;28;20465;-76
2022/07/14 08:52:05;;;;;;;4.93;1.50;;;;;;;24.95;42.70;101677.78;5042373;28;20086;-76
2022/07/14 08:54:33;;;;;;;9.88;2.17;;;;;;;24.98;43.72;101685.28;5063180;28;20825;-75
2022/07/14 08:56:58;;;;;;;13.52;2.10;;;;;;;25.21;42.25;101679.16;5063774;28;20047;-76
2022/07/14 08:59:23;;;;;;;7.88;1.90;;;;;;;25.37;41.11;101675.81;5063231;28;20032;-75
2022/07/14 09:01:50;;;;;;;8.48;2.08;;;;;;;25.16;42.25;101677.19;5047875;28;20029;-78
2022/07/14 09:04:16;;;;;;;15.45;2.47;;;;;;;25.20;40.62;101674.88;5036418;28;20140;-76
2022/07/14 09:06:42;;;;;;;7.40;1.52;;;;;;;25.16;41.90;101671.88;5052264;28;20036;-77
2022/07/14 09:09:08;;;;;;;11.10;2.05;;;;;;;25.55;39.28;101671.38;5052195;28;20048;-77
2022/07/14 09:11:33;;;;;;;10.35;1.73;;;;;;;25.21;41.38;101679.94;5049815;28;20078;-76
2022/07/14 09:14:09;;;;;;;14.85;3.17;;;;;;;24.94;41.05;101678.81;5054628;28;20016;-76
2022/07/14 09:16:36;;;;;;;6.57;1.25;;;;;;;24.82;41.05;101674.31;5067332;28;20671;-77
2022/07/14 09:19:07;;;;;;;10.35;1.67;;;;;;;25.07;41.57;101673.25;5054843;28;20109;-76
2022/07/14 09:21:33;;;;;;;6.75;1.40;;;;;;;25.23;40.26;101677.09;5068939;28;20405;-77
2022/07/14 09:23:59;;;;;;;9.23;1.60;;;;;;;25.39;40.60;101679.03;5047146;28;20070;-76
2022/07/14 09:26:25;;;;;;;7.95;1.80;;;;;;;25.75;40.42;101682.41;5033481;28;20125;-76
2022/07/14 09:28:51;;;;;;;9.20;1.80;;;;;;;25.93;40.85;101675.31;5048504;28;20028;-76
2022/07/14 09:31:29;;;;;;;11.73;2.53;;;;;;;26.33;40.27;101674.41;5074109;28;20036;-77
2022/07/14 09:34:06;;;;;;;9.98;1.55;;;;;;;26.26;39.38;101668.44;5048749;28;20489;-75
2022/07/14 09:36:34;;;;;;;8.20;1.42;;;;;;;26.58;38.43;101671.38;5064829;28;20037;-75
2022/07/14 09:39:05;;;;;;;7.72;1.25;;;;;;;26.64;38.23;101669.63;5067020;28;20057;-77
2022/07/14 09:41:33;;;;;;;11.13;1.50;;;;;;;26.23;35.75;101659.91;5047068;28;20020;-74
2022/07/14 09:44:13;;;;;;;6.10;1.58;;;;;;;26.16;36.85;101653.13;5053041;28;20481;-75
2022/07/14 09:46:47;;;;;;;7.70;1.35;;;;;;;26.31;37.45;101655.25;5068035;28;20043;-76
2022/07/14 09:49:14;;;;;;;9.57;1.42;;;;;;;26.64;37.36;101664.31;5049804;28;20052;-77
2022/07/14 09:51:57;;;;;;;5.85;1.17;;;;;;;26.59;36.34;101659.69;5050226;28;20029;-76
2022/07/14 09:54:39;;;;;;;7.45;1.58;;;;;;;26.35;36.83;101656.38;5068546;28;20035;-77
2022/07/14 09:57:28;;;;;;;7.75;1.40;;;;;;;26.26;37.68;101663.97;5066118;28;20044;-77
2022/07/14 09:59:58;;;;;;;6.30;1.15;;;;;;;26.58;36.84;101661.53;5047307;28;20040;-77
2022/07/14 10:02:29;;;;;;;6.43;1.88;;;;;;;26.60;36.85;101662.13;5047744;28;20024;-78
2022/07/14 10:05:02;;;;;;;5.18;1.15;;;;;;;26.58;35.05;101666.06;5033819;28;20032;-78
2022/07/14 10:07:33;;;;;;;9.30;1.67;;;;;;;26.35;36.62;101665.16;5068041;28;20036;-77
2022/07/14 10:10:12;;;;;;;10.88;1.90;;;;;;;26.51;36.55;101662.75;5068535;28;20064;-78
2022/07/14 10:12:41;;;;;;;3.95;1.27;;;;;;;26.72;35.30;101671.88;5047938;28;20040;-77
2022/07/14 10:15:08;;;;;;;5.53;1.33;;;;;;;26.75;35.80;101660.75;5072910;28;20036;-77
2022/07/14 10:17:36;;;;;;;8.27;1.60;;;;;;;26.90;35.21;101663.63;5050300;28;20339;-77
2022/07/14 10:20:04;;;;;;;8.27;1.73;;;;;;;26.28;35.87;101666.38;5070779;28;20134;-77
2022/07/14 10:22:30;;;;;;;5.63;1.50;;;;;;;26.44;36.43;101665.56;5049512;28;20534;-77
2022/07/14 10:24:56;;;;;;;10.18;2.00;;;;;;;26.66;35.20;101659.56;5031761;28;20115;-78
2022/07/14 10:27:22;;;;;;;6.30;1.48;;;;;;;26.77;34.75;101663.97;5046520;28;20028;-75
2022/07/14 10:29:50;;;;;;;8.43;1.98;;;;;;;26.53;34.68;101663.31;5049134;28;20548;-76
2022/07/14 10:32:37;;;;;;;5.85;1.88;;;;;;;26.99;32.93;101659.50;5047264;28;20841;-76
2022/07/14 10:35:35;;;;;;;4.90;1.33;;;;;;;27.05;33.30;101667.53;5063541;28;20048;-77
2022/07/14 10:38:25;;;;;;;29.70;2.80;;;;;;;26.88;34.46;101665.75;5065671;28;20512;-76
2022/07/14 10:41:08;;;;;;;10.35;2.47;;;;;;;27.02;34.34;101660.06;5044628;28;20051;-76
2022/07/14 10:44:05;;;;;;;8.55;2.33;;;;;;;26.47;34.85;101664.28;5051058;28;20038;-77
2022/07/14 10:46:36;;;;;;;8.38;2.22;;;;;;;26.51;34.80;101660.09;5048608;28;20028;-76
2022/07/14 10:49:03;;;;;;;5.22;1.50;;;;;;;27.02;35.25;101650.22;5023647;28;20449;-76
2022/07/14 10:51:31;;;;;;;3.33;1.38;;;;;;;27.28;34.73;101648.72;5047506;28;20393;-77
2022/07/14 10:54:21;;;;;;;8.85;2.25;;;;;;;26.85;35.00;101649.47;5046031;28;20032;-76
2022/07/14 10:56:48;;;;;;;6.10;1.50;;;;;;;26.83;35.62;101644.38;5027696;28;20110;-75
2022/07/14 10:59:25;;;;;;;6.53;1.83;;;;;;;27.13;35.61;101653.81;5063272;28;20536;-75
2022/07/14 11:02:12;;;;;;;11.30;2.45;;;;;;;27.29;34.01;101646.84;5051651;28;20025;-76
2022/07/14 11:05:02;;;;;;;4.68;1.58;;;;;;;27.22;34.98;101635.56;5061553;28;20040;-77
2022/07/14 11:07:43;;;;;;;6.25;1.60;;;;;;;27.23;33.04;101653.94;5060925;28;20517;-76
2022/07/14 11:10:17;;;;;;;3.70;1.40;;;;;;;26.91;33.12;101643.94;5031882;28;20631;-79
2022/07/14 11:13:05;;;;;;;8.10;2.22;;;;;;;27.16;32.87;101650.66;5048019;28;20028;-76
2022/07/14 11:15:53;;;;;;;5.00;1.40;;;;;;;27.27;32.51;101646.31;5060720;28;20039;-76
2022/07/14 11:18:18;;;;;;;6.40;1.38;;;;;;;27.13;33.85;101646.63;5065769;28;20075;-76
2022/07/14 11:20:50;;;;;;;4.45;1.38;;;;;;;27.38;33.58;101645.38;5065474;28;20548;-75
2022/07/14 11:23:21;;;;;;;3.50;1.20;;;;;;;27.84;31.33;101650.38;5049387;28;20096;-78
2022/07/14 11:25:52;;;;;;;6.63;1.30;;;;;;;27.48;31.29;101647.34;5045279;28;20082;-77
2022/07/14 11:28:33;;;;;;;3.38;0.90;;;;;;;27.72;32.01;101654.00;5062645;28;20039;-75
2022/07/14 11:31:10;;;;;;;4.70;1.00;;;;;;;27.81;30.96;101649.03;5044198;28;20493;-77
2022/07/14 11:36:17;;;;;;;4.28;1.88;;;;;;;27.59;31.95;101654.38;5041110;28;20060;-76